createdAt,value
2018-12-17T00:00:06.384Z,12.53
2018-12-17T00:02:45.637Z,13.33
2018-12-17T00:05:20.140Z,12.57
2018-12-17T00:07:54.323Z,12.47
2018-12-17T00:10:28.843Z,11.87
2018-12-17T00:13:02.801Z,13.07
2018-12-17T00:15:34.543Z,11.90
2018-12-17T00:18:09.193Z,13.40
2018-12-17T00:20:43.334Z,12.13
2018-12-17T00:23:15.296Z,12.80
2018-12-17T00:25:49.334Z,12.00
2018-12-17T00:28:23.591Z,12.03
2018-12-17T00:30:58.095Z,13.53
2018-12-17T00:33:32.294Z,12.33
2018-12-17T00:36:06.735Z,12.97
2018-12-17T00:38:41.025Z,12.43
2018-12-17T00:41:15.315Z,14.07
2018-12-17T00:43:49.723Z,12.93
2018-12-17T00:46:25.640Z,12.80
2018-12-17T00:48:59.885Z,13.80
2018-12-17T00:51:37.309Z,13.63
2018-12-17T00:54:11.282Z,12.07
2018-12-17T00:56:45.365Z,12.30
2018-12-17T00:59:19.767Z,14.23
2018-12-17T01:01:53.640Z,12.70
2018-12-17T01:04:27.857Z,12.33
2018-12-17T01:07:01.806Z,11.70
2018-12-17T01:09:36.270Z,11.07
2018-12-17T01:12:10.385Z,11.87
2018-12-17T01:14:44.677Z,10.87
2018-12-17T01:17:18.780Z,11.07
2018-12-17T01:19:52.724Z,11.77
2018-12-17T01:22:31.213Z,10.60
2018-12-17T01:25:05.292Z,11.47
2018-12-17T01:27:37.418Z,10.93
2018-12-17T01:30:11.455Z,11.13
2018-12-17T01:32:45.541Z,10.27
2018-12-17T01:35:21.908Z,11.40
2018-12-17T01:37:56.135Z,11.00
2018-12-17T01:40:30.233Z,10.83
2018-12-17T01:46:04.708Z,10.83
2018-12-17T01:48:45.043Z,10.53
2018-12-17T01:51:19.337Z,11.20
2018-12-17T02:00:05.330Z,10.40
2018-12-17T02:02:40.310Z,10.97
2018-12-17T02:05:14.270Z,10.60
2018-12-17T02:07:48.143Z,10.37
2018-12-17T02:10:22.417Z,11.27
2018-12-17T02:12:56.845Z,11.13
2018-12-17T02:15:28.719Z,10.87
2018-12-17T02:18:02.761Z,10.17
2018-12-17T02:20:36.796Z,10.83
2018-12-17T02:23:10.746Z,10.70
2018-12-17T02:25:45.033Z,10.70
2018-12-17T02:28:19.260Z,10.90
2018-12-17T02:30:53.472Z,10.23
2018-12-17T02:33:27.434Z,11.00
2018-12-17T02:36:01.511Z,11.07
2018-12-17T02:38:35.777Z,10.30
2018-12-17T02:41:13.210Z,10.37
2018-12-17T02:43:51.656Z,10.27
2018-12-17T02:46:25.526Z,10.20
2018-12-17T02:48:59.791Z,10.33
2018-12-17T02:51:35.473Z,9.93
2018-12-17T02:54:10.094Z,10.43
2018-12-17T02:56:48.025Z,10.07
2018-12-17T02:59:22.220Z,9.83
2018-12-17T03:01:56.785Z,9.43
2018-12-17T03:04:31.269Z,9.77
2018-12-17T03:07:05.780Z,10.87
2018-12-17T03:09:40.402Z,10.37
2018-12-17T03:12:27.908Z,10.03
2018-12-17T03:14:59.921Z,10.10
2018-12-17T03:17:31.932Z,9.37
2018-12-17T03:20:04.910Z,9.23
2018-12-17T03:22:38.771Z,9.50
2018-12-17T03:25:12.935Z,9.80
2018-12-17T03:27:46.967Z,9.80
2018-12-17T03:30:21.370Z,10.00
2018-12-17T03:32:55.240Z,9.63
2018-12-17T03:35:29.615Z,9.60
2018-12-17T03:38:03.697Z,8.93
2018-12-17T03:40:37.910Z,9.03
2018-12-17T03:43:11.867Z,8.23
2018-12-17T03:45:55.904Z,8.97
2018-12-17T03:48:27.717Z,8.60
2018-12-17T03:51:12.322Z,9.13
2018-12-17T03:53:51.718Z,8.37
2018-12-17T03:56:25.788Z,8.67
2018-12-17T03:58:59.857Z,8.60
2018-12-17T04:01:33.877Z,8.33
2018-12-17T04:04:08.089Z,8.90
2018-12-17T04:06:42.148Z,7.43
2018-12-17T04:12:16.307Z,7.70
2018-12-17T04:14:50.464Z,8.17
2018-12-17T04:17:24.736Z,7.80
2018-12-17T04:22:58.789Z,7.60
2018-12-17T04:25:32.953Z,8.20
2018-12-17T04:38:52.324Z,7.73
2018-12-17T04:41:26.208Z,8.40
2018-12-17T04:44:00.596Z,7.40
2018-12-17T04:52:35.073Z,7.47
2018-12-17T04:55:09.176Z,8.13
2018-12-17T04:57:41.250Z,7.20
2018-12-17T05:00:13.340Z,7.60
2018-12-17T05:02:45.421Z,7.37
2018-12-17T05:05:19.537Z,7.27
2018-12-17T05:07:53.931Z,8.00
2018-12-17T05:10:27.996Z,7.93
2018-12-17T05:13:01.474Z,7.60
2018-12-17T05:15:39.459Z,7.40
2018-12-17T05:18:13.702Z,7.27
2018-12-17T05:20:47.831Z,7.30
2018-12-17T05:23:21.789Z,6.70
2018-12-17T05:25:55.987Z,7.57
2018-12-17T05:28:29.904Z,6.63
2018-12-17T05:31:06.609Z,7.47
2018-12-17T05:33:42.162Z,7.47
2018-12-17T05:36:14.559Z,7.27
2018-12-17T05:38:49.352Z,7.63
2018-12-17T05:41:23.401Z,8.00
2018-12-17T05:43:57.538Z,7.27
2018-12-17T05:46:31.873Z,7.37
2018-12-17T05:52:06.202Z,7.37
2018-12-17T05:54:42.494Z,7.50
2018-12-17T05:57:16.715Z,7.07
2018-12-17T06:00:08.332Z,7.07
2018-12-17T06:02:46.230Z,7.70
2018-12-17T06:05:20.686Z,6.77
2018-12-17T06:07:54.913Z,7.23
2018-12-17T06:10:28.995Z,7.20
2018-12-17T06:13:03.068Z,7.07
2018-12-17T06:15:37.110Z,6.63
2018-12-17T06:18:11.361Z,6.90
2018-12-17T06:20:46.548Z,6.33
2018-12-17T06:23:20.987Z,6.57
2018-12-17T06:25:55.283Z,6.77
2018-12-17T06:28:29.359Z,7.30
2018-12-17T06:31:03.475Z,7.37
2018-12-17T06:33:37.451Z,6.80
2018-12-17T06:36:11.381Z,6.83
2018-12-17T06:38:45.298Z,6.73
2018-12-17T06:41:19.351Z,6.13
2018-12-17T06:43:53.497Z,6.60
2018-12-17T06:46:27.835Z,7.07
2018-12-17T06:49:21.763Z,6.80
2018-12-17T06:51:56.436Z,6.40
2018-12-17T06:54:28.475Z,6.53
2018-12-17T06:57:02.437Z,6.50
2018-12-17T06:59:42.515Z,6.23
2018-12-17T07:02:13.654Z,6.10
2018-12-17T07:04:47.566Z,6.30
2018-12-17T07:07:21.829Z,6.37
2018-12-17T07:09:56.087Z,6.57
2018-12-17T07:12:30.162Z,6.63
2018-12-17T07:15:01.685Z,6.23
2018-12-17T07:17:35.637Z,7.23
2018-12-17T07:20:09.686Z,7.37
2018-12-17T07:22:43.959Z,6.80
2018-12-17T07:25:18.316Z,6.97
2018-12-17T07:27:52.826Z,7.47
2018-12-17T07:30:26.797Z,7.07
2018-12-17T07:33:00.865Z,6.73
2018-12-17T07:35:35.031Z,7.13
2018-12-17T07:38:09.616Z,7.50
2018-12-17T07:40:43.969Z,7.37
2018-12-17T07:43:18.117Z,6.87
2018-12-17T07:45:52.046Z,6.83
2018-12-17T07:48:26.306Z,6.73
2018-12-17T07:51:00.736Z,7.40
2018-12-17T07:53:34.690Z,6.77
2018-12-17T07:56:08.749Z,6.53
2018-12-17T07:58:40.469Z,6.23
2018-12-17T08:01:27.919Z,6.37
2018-12-17T08:04:01.768Z,7.00
2018-12-17T08:06:49.181Z,7.17
2018-12-17T08:09:23.214Z,7.77
2018-12-17T08:12:10.650Z,7.63
2018-12-17T08:17:47.583Z,7.43
2018-12-17T08:20:21.587Z,7.20
2018-12-17T08:22:55.540Z,6.97
2018-12-17T08:25:29.961Z,6.60
2018-12-17T08:28:04.111Z,6.47
2018-12-17T08:30:38.348Z,6.80
2018-12-17T08:33:25.845Z,7.30
2018-12-17T08:35:59.724Z,6.37
2018-12-17T08:38:38.293Z,6.60
2018-12-17T08:41:09.425Z,6.03
2018-12-17T08:43:43.287Z,6.20
2018-12-17T08:46:21.537Z,6.30
2018-12-17T08:48:55.965Z,6.80
2018-12-17T08:51:29.801Z,6.53
2018-12-17T08:54:04.258Z,6.37
2018-12-17T08:56:38.452Z,6.73
2018-12-17T08:59:12.591Z,6.33
2018-12-17T09:01:46.858Z,6.87
2018-12-17T09:04:20.847Z,7.07
2018-12-17T09:06:54.872Z,6.67
2018-12-17T09:09:28.846Z,6.43
2018-12-17T09:12:02.856Z,7.23
2018-12-17T09:14:37.039Z,7.57
2018-12-17T09:17:11.221Z,7.00
2018-12-17T09:19:45.444Z,7.83
2018-12-17T09:22:19.547Z,8.03
2018-12-17T09:24:53.607Z,7.47
2018-12-17T09:27:41.002Z,8.37
2018-12-17T09:30:18.445Z,8.30
2018-12-17T09:32:58.728Z,8.03
2018-12-17T09:35:33.199Z,8.53
2018-12-17T09:38:07.436Z,8.87
2018-12-17T09:40:45.249Z,8.87
2018-12-17T09:43:17.107Z,8.87
2018-12-17T09:45:51.054Z,8.77
2018-12-17T09:48:25.298Z,8.43
2018-12-17T09:50:59.468Z,9.27
2018-12-17T09:53:33.882Z,8.73
2018-12-17T09:56:09.128Z,9.37
2018-12-17T09:58:43.151Z,9.23
2018-12-17T10:01:17.323Z,9.20
2018-12-17T10:03:51.552Z,9.60
2018-12-17T10:06:25.955Z,9.50
2018-12-17T10:09:01.157Z,9.67
2018-12-17T10:11:35.137Z,9.20
2018-12-17T10:14:09.089Z,9.27
2018-12-17T10:16:43.311Z,9.53
2018-12-17T10:19:17.651Z,9.83
2018-12-17T10:21:55.686Z,9.90
2018-12-17T10:24:28.407Z,9.60
2018-12-17T10:26:59.987Z,9.23
2018-12-17T10:29:50.152Z,7.53
2018-12-17T10:32:24.006Z,8.90
2018-12-17T10:34:58.345Z,9.27
2018-12-17T10:37:32.615Z,8.50
2018-12-17T10:40:10.011Z,9.20
2018-12-17T10:42:44.139Z,8.50
2018-12-17T10:45:17.977Z,8.60
2018-12-17T10:47:52.443Z,8.33
2018-12-17T10:50:26.811Z,8.37
2018-12-17T10:53:00.731Z,8.93
2018-12-17T10:55:53.077Z,8.43
2018-12-17T10:58:27.546Z,8.40
2018-12-17T11:01:07.637Z,8.13
2018-12-17T11:03:43.057Z,8.03
2018-12-17T11:06:18.768Z,7.77
2018-12-17T11:08:50.804Z,6.90
2018-12-17T11:11:28.126Z,7.60
2018-12-17T11:14:02.612Z,7.33
2018-12-17T11:16:36.853Z,7.50
2018-12-17T11:19:11.168Z,7.20
2018-12-17T11:21:45.396Z,7.00
2018-12-17T11:24:19.352Z,6.80
2018-12-17T11:27:00.436Z,6.93
2018-12-17T11:29:34.814Z,6.03
2018-12-17T11:32:11.670Z,5.47
2018-12-17T11:34:45.466Z,5.90
2018-12-17T11:37:19.627Z,5.57
2018-12-17T11:39:53.670Z,6.60
2018-12-17T11:42:27.922Z,6.07
2018-12-17T11:45:05.433Z,6.37
2018-12-17T11:47:39.628Z,6.03
2018-12-17T11:50:13.452Z,5.83
2018-12-17T11:52:47.615Z,5.77
2018-12-17T11:55:21.860Z,6.10
2018-12-17T11:58:09.551Z,6.13
2018-12-17T12:00:41.812Z,4.83
2018-12-17T12:03:15.760Z,5.03
2018-12-17T12:05:49.910Z,5.20
2018-12-17T12:08:24.260Z,5.10
2018-12-17T12:11:03.635Z,5.40
2018-12-17T12:13:37.641Z,5.40
2018-12-17T12:16:11.811Z,4.80
2018-12-17T12:18:45.987Z,5.03
2018-12-17T12:21:20.151Z,4.97
2018-12-17T12:23:54.201Z,5.00
2018-12-17T12:26:28.179Z,4.70
2018-12-17T12:29:00.909Z,4.57
2018-12-17T12:31:32.673Z,4.47
2018-12-17T12:34:06.600Z,4.93
2018-12-17T12:36:40.716Z,5.03
2018-12-17T12:39:15.244Z,5.17
2018-12-17T12:41:50.000Z,5.03
2018-12-17T12:44:26.156Z,4.83
2018-12-17T12:46:57.971Z,5.20
2018-12-17T12:49:29.369Z,4.53
2018-12-17T12:52:03.509Z,4.70
2018-12-17T12:54:37.979Z,4.77
2018-12-17T12:57:12.286Z,5.20
2018-12-17T12:59:46.660Z,4.50
2018-12-17T13:02:20.755Z,4.40
2018-12-17T13:04:54.707Z,5.00
2018-12-17T13:07:28.825Z,5.17
2018-12-17T13:10:03.704Z,5.23
2018-12-17T13:12:38.074Z,4.80
2018-12-17T13:15:12.452Z,5.23
2018-12-17T13:17:47.152Z,4.80
2018-12-17T13:20:21.230Z,4.50
2018-12-17T13:22:55.591Z,5.23
2018-12-17T13:25:31.346Z,4.93
2018-12-17T13:28:05.204Z,4.77
2018-12-17T13:30:39.439Z,5.40
2018-12-17T13:33:13.655Z,4.73
2018-12-17T13:35:47.792Z,4.63
2018-12-17T13:38:21.948Z,4.40
2018-12-17T13:40:56.372Z,5.03
2018-12-17T13:43:30.618Z,4.90
2018-12-17T13:46:05.013Z,4.40
2018-12-17T13:48:39.052Z,4.60
2018-12-17T13:51:18.975Z,4.20
2018-12-17T13:53:55.736Z,4.70
2018-12-17T13:56:27.926Z,4.43
2018-12-17T13:59:02.548Z,4.40
2018-12-17T14:01:36.638Z,4.33
2018-12-17T14:04:10.732Z,4.67
2018-12-17T14:06:44.807Z,4.17
2018-12-17T14:09:18.883Z,4.70
2018-12-17T14:11:50.677Z,4.10
2018-12-17T14:14:24.564Z,4.33
2018-12-17T14:17:04.341Z,4.10
2018-12-17T14:19:36.115Z,4.30
2018-12-17T14:22:10.093Z,4.73
2018-12-17T14:24:44.503Z,4.40
2018-12-17T14:27:18.975Z,3.90
2018-12-17T14:29:53.167Z,4.17
2018-12-17T14:32:27.407Z,4.30
2018-12-17T14:34:59.183Z,4.50
2018-12-17T14:37:33.234Z,4.30
2018-12-17T14:40:07.763Z,4.40
2018-12-17T14:42:41.619Z,4.60
2018-12-17T14:45:15.844Z,4.83
2018-12-17T14:47:46.970Z,4.97
2018-12-17T14:50:20.835Z,4.63
2018-12-17T14:52:55.009Z,4.60
2018-12-17T14:55:29.147Z,5.40
2018-12-17T14:58:03.340Z,5.10
2018-12-17T15:00:37.740Z,5.57
2018-12-17T15:03:12.155Z,6.17
2018-12-17T15:05:46.227Z,6.03
2018-12-17T15:08:20.307Z,5.43
2018-12-17T15:10:54.505Z,6.20
2018-12-17T15:13:29.007Z,6.30
2018-12-17T15:16:03.385Z,5.67
2018-12-17T15:18:37.473Z,5.97
2018-12-17T15:21:11.447Z,6.43
2018-12-17T15:23:43.288Z,5.83
2018-12-17T15:26:15.368Z,5.73
2018-12-17T15:28:49.953Z,6.27
2018-12-17T15:31:24.286Z,5.90
2018-12-17T15:33:58.552Z,6.17
2018-12-17T15:36:32.443Z,6.37
2018-12-17T15:39:07.016Z,6.27
2018-12-17T15:41:41.076Z,6.60
2018-12-17T15:44:15.884Z,5.80
2018-12-17T15:46:50.205Z,5.97
2018-12-17T15:49:24.500Z,5.90
2018-12-17T15:51:58.644Z,6.40
2018-12-17T15:54:34.490Z,6.70
2018-12-17T15:57:08.621Z,5.87
2018-12-17T15:59:42.571Z,5.87
2018-12-17T16:02:16.568Z,6.63
2018-12-17T16:04:50.724Z,6.33
2018-12-17T16:07:25.169Z,6.03
2018-12-17T16:09:59.714Z,6.30
2018-12-17T16:12:33.869Z,5.53
2018-12-17T16:15:07.907Z,6.00
2018-12-17T16:17:41.881Z,6.37
2018-12-17T16:20:16.203Z,6.17
2018-12-17T16:22:50.445Z,6.23
2018-12-17T16:25:24.534Z,6.10
2018-12-17T16:27:58.515Z,6.43
2018-12-17T16:30:32.651Z,6.50
2018-12-17T16:33:04.783Z,6.63
2018-12-17T16:35:36.972Z,6.57
2018-12-17T16:38:09.005Z,5.93
2018-12-17T16:40:43.018Z,6.87
2018-12-17T16:43:17.217Z,7.23
2018-12-17T16:45:51.215Z,7.50
2018-12-17T16:48:25.435Z,8.37
2018-12-17T16:50:59.570Z,8.20
2018-12-17T16:53:33.829Z,8.97
2018-12-17T16:56:07.772Z,9.03
2018-12-17T16:58:42.104Z,9.37
2018-12-17T17:01:14.186Z,9.70
2018-12-17T17:03:46.246Z,9.43
2018-12-17T17:06:20.339Z,9.87
2018-12-17T17:08:55.640Z,10.30
2018-12-17T17:11:36.591Z,9.53
2018-12-17T17:14:12.508Z,9.90
2018-12-17T17:16:47.661Z,10.07
2018-12-17T17:19:29.547Z,9.60
2018-12-17T17:22:01.919Z,9.67
2018-12-17T17:24:44.561Z,9.00
2018-12-17T17:27:17.324Z,9.67
2018-12-17T17:29:51.608Z,9.97
2018-12-17T17:32:25.619Z,10.90
2018-12-17T17:35:00.320Z,10.20
2018-12-17T17:37:32.168Z,9.90
2018-12-17T17:40:04.631Z,10.30
2018-12-17T17:42:37.465Z,10.40
2018-12-17T17:45:11.623Z,10.47
2018-12-17T17:47:45.801Z,9.37
2018-12-17T17:50:20.332Z,9.27
2018-12-17T17:52:54.337Z,8.97
2018-12-17T17:55:28.533Z,9.47
2018-12-17T17:58:02.708Z,9.57
2018-12-17T18:00:50.255Z,10.27
2018-12-17T18:03:24.925Z,10.20
2018-12-17T18:06:00.484Z,9.73
2018-12-17T18:08:34.817Z,10.60
2018-12-17T18:11:10.115Z,10.03
2018-12-17T18:13:44.328Z,9.63
2018-12-17T18:16:18.519Z,10.57
2018-12-17T18:18:52.950Z,11.07
2018-12-17T18:21:27.852Z,9.97
2018-12-17T18:24:01.957Z,10.50
2018-12-17T18:26:36.370Z,10.00
2018-12-17T18:29:10.850Z,9.53
2018-12-17T18:31:44.924Z,10.23
2018-12-17T18:34:23.154Z,10.87
2018-12-17T18:36:57.339Z,10.50
2018-12-17T18:39:31.391Z,10.50
2018-12-17T18:42:05.671Z,11.30
2018-12-17T18:44:40.092Z,11.60
2018-12-17T18:47:14.120Z,11.17
2018-12-17T18:49:48.213Z,10.97
2018-12-17T18:52:22.647Z,11.93
2018-12-17T18:54:57.021Z,12.03
2018-12-17T18:57:31.268Z,11.70
2018-12-17T19:03:05.382Z,11.53
2018-12-17T19:05:39.540Z,11.57
2018-12-17T19:08:13.960Z,11.77
2018-12-17T19:10:56.512Z,12.90
2018-12-17T19:13:31.124Z,11.73
2018-12-17T19:16:05.137Z,11.63
2018-12-17T19:18:39.328Z,11.87
2018-12-17T19:21:13.322Z,12.00
2018-12-17T19:23:47.461Z,12.17
2018-12-17T19:26:21.716Z,12.30
2018-12-17T19:28:53.926Z,11.90
2018-12-17T19:31:25.972Z,13.00
2018-12-17T19:34:00.216Z,12.60
2018-12-17T19:36:34.463Z,12.60
2018-12-17T19:39:09.379Z,12.43
2018-12-17T19:41:43.951Z,12.20
2018-12-17T19:44:18.018Z,12.63
2018-12-17T19:46:51.975Z,12.17
2018-12-17T19:49:26.239Z,12.27
2018-12-17T19:52:05.753Z,12.63
2018-12-17T19:54:39.625Z,12.40
2018-12-17T19:57:13.914Z,14.23
2018-12-17T19:59:48.180Z,12.93
2018-12-17T20:02:22.421Z,13.50
2018-12-17T20:04:56.586Z,13.17
2018-12-17T20:07:30.621Z,13.63
2018-12-17T20:10:05.157Z,13.27
2018-12-17T20:12:39.344Z,13.13
2018-12-17T20:15:13.530Z,13.27
2018-12-17T20:17:48.151Z,13.80
2018-12-17T20:20:22.231Z,12.57
2018-12-17T20:22:56.383Z,13.83
2018-12-17T20:25:30.687Z,14.27
2018-12-17T20:28:04.915Z,13.57
2018-12-17T20:30:38.909Z,14.27
2018-12-17T20:33:12.940Z,12.47
2018-12-17T20:35:47.324Z,14.03
2018-12-17T20:38:21.435Z,13.57
2018-12-17T20:40:55.396Z,13.57
2018-12-17T20:43:29.513Z,13.67
2018-12-17T20:46:10.152Z,12.33
2018-12-17T20:48:44.652Z,13.03
2018-12-17T20:51:22.620Z,12.70
2018-12-17T20:53:54.004Z,12.90
2018-12-17T20:56:28.412Z,13.33
2018-12-17T20:59:00.504Z,13.10
2018-12-17T21:01:47.806Z,12.33
2018-12-17T21:04:22.640Z,12.67
2018-12-17T21:06:56.883Z,13.10
2018-12-17T21:09:34.260Z,11.77
2018-12-17T21:12:08.374Z,12.47
2018-12-17T21:17:47.520Z,12.70
2018-12-17T21:20:21.815Z,12.07
2018-12-17T21:23:10.221Z,12.50
2018-12-17T21:25:42.254Z,12.13
2018-12-17T21:28:19.389Z,11.70
2018-12-17T21:30:53.697Z,12.27
2018-12-17T21:33:28.211Z,12.13
2018-12-17T21:36:02.101Z,12.17
2018-12-17T21:38:36.196Z,11.60
2018-12-17T21:41:10.532Z,11.70
2018-12-17T21:43:44.492Z,12.47
2018-12-17T21:46:18.650Z,12.23
2018-12-17T21:48:52.700Z,12.73
2018-12-17T21:51:26.980Z,12.17
2018-12-17T21:54:01.313Z,12.80
2018-12-17T21:56:35.854Z,13.50
2018-12-17T21:59:10.061Z,13.23
2018-12-17T22:01:44.456Z,12.50
2018-12-17T22:04:16.493Z,13.33
2018-12-17T22:06:53.604Z,12.73
2018-12-17T22:09:27.750Z,12.40
2018-12-17T22:12:21.469Z,12.50
2018-12-17T22:14:59.739Z,11.83
2018-12-17T22:17:36.107Z,13.47
2018-12-17T22:20:10.170Z,11.90
2018-12-17T22:22:49.113Z,11.63
2018-12-17T22:25:36.600Z,12.10
2018-12-17T22:28:11.344Z,11.20
2018-12-17T22:30:45.770Z,10.93
2018-12-17T22:33:20.288Z,12.60
2018-12-17T22:35:52.425Z,11.93
2018-12-17T22:38:29.380Z,12.27
2018-12-17T22:41:03.634Z,11.90
2018-12-17T22:43:38.062Z,12.07
2018-12-17T22:46:12.824Z,12.80
2018-12-17T22:48:53.116Z,11.87
2018-12-17T22:51:27.324Z,13.10
2018-12-17T22:54:01.530Z,13.80
2018-12-17T22:56:35.568Z,13.60
2018-12-17T22:59:09.553Z,12.77
2018-12-17T23:01:43.703Z,12.67
2018-12-17T23:04:17.800Z,13.53
2018-12-17T23:06:51.720Z,13.33
2018-12-17T23:09:25.523Z,14.13
2018-12-17T23:12:11.588Z,13.83
2018-12-17T23:14:57.569Z,12.53
2018-12-17T23:17:40.959Z,13.03
2018-12-17T23:20:13.794Z,13.83
2018-12-17T23:22:48.498Z,13.50
2018-12-17T23:25:22.835Z,14.50
2018-12-17T23:27:57.208Z,13.67
2018-12-17T23:30:31.167Z,14.40
2018-12-17T23:33:05.176Z,13.87
2018-12-17T23:35:37.166Z,13.57
2018-12-17T23:38:11.960Z,13.27
2018-12-17T23:40:46.829Z,14.27
2018-12-17T23:43:18.892Z,13.73
2018-12-17T23:45:50.849Z,14.07
2018-12-17T23:48:25.317Z,13.90
2018-12-17T23:51:02.802Z,12.97
2018-12-17T23:53:36.877Z,12.50
2018-12-17T23:56:11.063Z,12.93
2018-12-17T23:58:45.154Z,13.70
